Time;durP1;ratioP1;P1;durP2;ratioP2;P2;SDS_P1;SDS_P2;PMS_P1;PMS_P2;Temp;Humidity;BMP_temperature;BMP_pressure;BME280_temperature;BME280_humidity;BME280_pressure;Samples;Min_cycle;Max_cycle;Signal;HPM_P1;HPM_P2
2023/04/03 00:02:03;;;;;;;2.03;0.50;;;9.70;99.90;;;;;;5036452;28;20657;-83
2023/04/03 00:04:35;;;;;;;0.53;0.33;;;9.60;99.90;;;;;;4683403;28;9999851;-91
2023/04/03 00:07:07;;;;;;;1.40;0.40;;;9.40;99.90;;;;;;5175052;22;21051;-92
2023/04/03 00:09:39;;;;;;;1.10;0.33;;;9.10;99.90;;;;;;4997921;28;20234;-89
2023/04/03 00:12:11;;;;;;;0.70;0.30;;;8.80;99.90;;;;;;4997896;28;20198;-89
2023/04/03 00:14:43;;;;;;;0.80;0.30;;;8.50;99.90;;;;;;4992972;28;20229;-88
2023/04/03 00:17:17;;;;;;;0.20;0.20;;;8.30;99.90;;;;;;5013253;28;20242;-96
2023/04/03 00:19:49;;;;;;;0.57;0.30;;;8.50;99.90;;;;;;5011221;28;20213;-91
2023/04/03 00:22:26;;;;;;;1.30;0.60;;;8.50;99.90;;;;;;5000756;28;20214;-95
2023/04/03 00:24:58;;;;;;;1.10;0.50;;;8.40;99.90;;;;;;5022445;28;20237;-92
2023/04/03 00:27:30;;;;;;;0.40;0.40;;;8.20;99.90;;;;;;5031684;28;20216;-93
2023/04/03 00:30:02;;;;;;;2.77;0.57;;;7.90;99.90;;;;;;5007781;28;20237;-91
2023/04/03 00:32:35;;;;;;;1.13;0.40;;;7.80;99.90;;;;;;5013311;28;20207;-94
2023/04/03 00:35:08;;;;;;;0.80;0.50;;;7.80;99.90;;;;;;5001161;28;20237;-93
2023/04/03 00:37:40;;;;;;;2.10;0.60;;;7.70;99.90;;;;;;5000535;28;20230;-95
2023/04/03 00:40:22;;;;;;;0.60;0.40;;;7.60;99.90;;;;;;5004713;28;20207;-95
2023/04/03 00:42:57;;;;;;;1.00;0.57;;;7.70;99.90;;;;;;4989463;28;20264;-90
2023/04/03 00:45:35;;;;;;;1.50;0.50;;;7.60;99.90;;;;;;4995712;28;20567;-88
2023/04/03 00:48:10;;;;;;;1.27;0.50;;;7.50;99.90;;;;;;4986948;28;20213;-87
2023/04/03 00:50:44;;;;;;;4.93;0.70;;;7.40;99.90;;;;;;4993483;28;20202;-88
2023/04/03 00:53:18;;;;;;;2.00;0.70;;;7.00;99.90;;;;;;4996086;28;20210;-89
2023/04/03 00:55:51;;;;;;;2.90;1.00;;;6.40;99.90;;;;;;5004911;28;20236;-88
2023/04/03 00:58:26;;;;;;;1.63;0.53;;;6.00;99.90;;;;;;4995660;28;20210;-90
2023/04/03 01:01:00;;;;;;;0.83;0.70;;;5.70;99.90;;;;;;4994015;28;20206;-90
2023/04/03 01:03:34;;;;;;;3.20;1.07;;;5.50;99.90;;;;;;4996911;28;20204;-92
2023/04/03 01:06:12;;;;;;;1.83;1.00;;;5.50;99.90;;;;;;4988556;28;20269;-91
2023/04/03 01:08:44;;;;;;;1.50;0.60;;;5.50;99.90;;;;;;4995196;28;20276;-90
2023/04/03 01:11:16;;;;;;;1.57;1.00;;;5.40;99.90;;;;;;4994052;28;20233;-91
2023/04/03 01:13:48;;;;;;;1.40;0.77;;;5.00;99.90;;;;;;4980051;28;20210;-89
2023/04/03 01:16:20;;;;;;;2.30;0.90;;;4.70;99.90;;;;;;4991897;28;20236;-90
2023/04/03 01:18:54;;;;;;;3.73;0.80;;;4.40;99.90;;;;;;4986785;28;20412;-92
2023/04/03 01:21:57;;;;;;;0.60;0.60;;;4.20;99.90;;;;;;4987115;28;20281;-91
2023/04/03 01:24:38;;;;;;;4.30;0.97;;;4.00;99.90;;;;;;4998412;28;20213;-91
2023/04/03 01:27:12;;;;;;;1.50;0.80;;;3.80;99.90;;;;;;4996113;28;20273;-91
2023/04/03 01:29:45;;;;;;;3.57;1.10;;;3.60;99.90;;;;;;4998957;28;20212;-91
2023/04/03 01:32:20;;;;;;;1.30;0.70;;;3.40;99.90;;;;;;4990286;28;20206;-92
2023/04/03 01:34:51;;;;;;;1.03;0.83;;;3.30;99.90;;;;;;4991599;28;20202;-89
2023/04/03 01:37:23;;;;;;;4.60;0.93;;;3.30;99.90;;;;;;4987976;28;20280;-89
2023/04/03 01:39:54;;;;;;;2.67;1.00;;;3.30;99.90;;;;;;4994386;28;20631;-90
2023/04/03 01:42:26;;;;;;;1.93;0.90;;;3.20;99.90;;;;;;4996673;28;20623;-90
2023/04/03 01:44:57;;;;;;;0.83;0.60;;;3.20;99.90;;;;;;4990194;28;20261;-88
2023/04/03 01:47:31;;;;;;;2.77;1.20;;;3.20;99.90;;;;;;4980542;28;20249;-88
2023/04/03 01:50:02;;;;;;;2.30;1.17;;;3.20;99.90;;;;;;4987066;28;20210;-88
2023/04/03 01:52:34;;;;;;;1.50;1.20;;;3.30;99.90;;;;;;4980251;28;20241;-90
2023/04/03 01:55:06;;;;;;;2.50;1.77;;;3.20;99.90;;;;;;4994854;28;20215;-89
2023/04/03 01:57:38;;;;;;;2.33;1.50;;;3.30;99.90;;;;;;4999538;28;20225;-91
2023/04/03 02:00:11;;;;;;;1.53;1.00;;;3.30;99.90;;;;;;5002819;28;20206;-90
2023/04/03 02:02:45;;;;;;;1.63;1.20;;;3.40;99.90;;;;;;5005332;28;20195;-90
2023/04/03 02:05:16;;;;;;;1.70;1.30;;;3.40;99.90;;;;;;4996828;28;20207;-90
2023/04/03 02:07:48;;;;;;;2.47;0.90;;;3.40;99.90;;;;;;4986807;28;20217;-91
2023/04/03 02:10:20;;;;;;;3.03;1.23;;;3.40;99.90;;;;;;4998127;28;20210;-92
2023/04/03 02:12:52;;;;;;;1.93;1.10;;;3.40;99.90;;;;;;5000711;28;20218;-90
2023/04/03 02:15:23;;;;;;;2.63;0.90;;;3.40;99.90;;;;;;4985187;28;20238;-89
2023/04/03 02:17:57;;;;;;;2.17;1.00;;;3.30;99.90;;;;;;4983795;28;20290;-90
2023/04/03 02:20:29;;;;;;;1.90;0.90;;;3.30;99.90;;;;;;4987444;28;20292;-89
2023/04/03 02:23:01;;;;;;;1.83;1.23;;;3.30;99.90;;;;;;4995746;28;20257;-90
2023/04/03 02:25:34;;;;;;;1.30;1.13;;;3.20;99.90;;;;;;4996980;28;20213;-90
2023/04/03 02:28:08;;;;;;;2.73;1.50;;;3.20;99.90;;;;;;4994736;28;20585;-91
2023/04/03 02:30:40;;;;;;;3.77;1.23;;;3.20;99.90;;;;;;4997444;28;20202;-90
2023/04/03 02:33:13;;;;;;;1.77;1.50;;;3.20;99.90;;;;;;4994929;28;20246;-91
2023/04/03 02:35:52;;;;;;;1.90;1.30;;;3.30;99.90;;;;;;4997932;28;20210;-91
2023/04/03 02:38:24;;;;;;;4.50;1.73;;;3.10;99.90;;;;;;4994979;28;20233;-89
2023/04/03 02:41:02;;;;;;;2.40;1.70;;;3.20;99.90;;;;;;4986496;28;20277;-91
2023/04/03 02:43:33;;;;;;;2.20;1.47;;;3.20;99.90;;;;;;4994019;28;20694;-88
2023/04/03 02:46:05;;;;;;;2.27;1.50;;;3.20;99.90;;;;;;4991996;28;20210;-89
2023/04/03 02:48:40;;;;;;;3.33;1.70;;;3.20;99.90;;;;;;4989732;28;20355;-90
2023/04/03 02:51:11;;;;;;;2.33;1.40;;;3.20;99.90;;;;;;4988662;28;20210;-90
2023/04/03 02:53:44;;;;;;;1.43;1.33;;;3.20;99.90;;;;;;4996735;28;20628;-90
2023/04/03 02:56:15;;;;;;;2.60;1.30;;;3.20;99.90;;;;;;4992046;28;20273;-89
2023/04/03 02:58:47;;;;;;;3.30;1.20;;;3.20;99.90;;;;;;4979677;28;20231;-88
2023/04/03 03:01:18;;;;;;;2.37;1.33;;;3.20;99.90;;;;;;5008771;28;20198;-89
2023/04/03 03:03:52;;;;;;;1.97;1.40;;;3.10;99.90;;;;;;5026814;28;20265;-89
2023/04/03 03:06:24;;;;;;;1.63;1.17;;;3.10;99.90;;;;;;5017516;28;20229;-87
2023/04/03 03:08:56;;;;;;;2.37;1.60;;;3.10;99.90;;;;;;5015808;28;20214;-89
2023/04/03 03:11:27;;;;;;;4.53;2.40;;;3.10;99.90;;;;;;5009468;28;20210;-90
2023/04/03 03:13:59;;;;;;;1.30;0.90;;;3.10;99.90;;;;;;5006239;28;20272;-90
2023/04/03 03:16:30;;;;;;;2.00;0.87;;;3.20;99.90;;;;;;5003489;28;20210;-90
2023/04/03 03:19:04;;;;;;;3.53;1.33;;;3.10;99.90;;;;;;5001085;28;20266;-90
2023/04/03 03:21:37;;;;;;;1.43;1.27;;;3.10;99.90;;;;;;4996910;28;20222;-90
2023/04/03 03:24:09;;;;;;;1.60;1.20;;;3.20;99.90;;;;;;5000769;28;20210;-90
2023/04/03 03:26:41;;;;;;;1.50;1.40;;;3.20;99.90;;;;;;4987004;28;20209;-90
2023/04/03 03:29:12;;;;;;;2.07;1.40;;;3.10;99.90;;;;;;5000185;28;20218;-91
2023/04/03 03:31:44;;;;;;;2.33;1.23;;;3.20;99.90;;;;;;5000158;28;20229;-91
2023/04/03 03:34:17;;;;;;;1.20;1.10;;;3.20;99.90;;;;;;5000022;28;20210;-91
2023/04/03 03:36:49;;;;;;;3.20;0.97;;;3.10;99.90;;;;;;4998095;28;20233;-92
2023/04/03 03:39:21;;;;;;;2.67;1.27;;;3.00;99.90;;;;;;4999594;28;20230;-90
2023/04/03 03:41:53;;;;;;;3.13;1.20;;;3.00;99.90;;;;;;4991226;28;20245;-91
2023/04/03 03:44:24;;;;;;;1.30;1.10;;;3.00;99.90;;;;;;4993726;28;20256;-90
2023/04/03 03:46:56;;;;;;;1.00;1.00;;;2.90;99.90;;;;;;4999091;28;20242;-89
2023/04/03 03:49:29;;;;;;;1.40;0.90;;;3.00;99.90;;;;;;4997896;28;20690;-89
2023/04/03 03:52:01;;;;;;;1.03;0.90;;;3.00;99.90;;;;;;4990080;28;20308;-90
2023/04/03 03:54:33;;;;;;;1.33;0.70;;;3.00;99.90;;;;;;4981542;28;20322;-90
2023/04/03 03:57:06;;;;;;;0.80;0.80;;;3.00;99.90;;;;;;4995381;28;20202;-89
2023/04/03 03:59:38;;;;;;;1.13;0.70;;;3.00;99.90;;;;;;4997926;28;20671;-91
2023/04/03 04:02:09;;;;;;;1.70;0.80;;;2.90;99.90;;;;;;4995088;28;20293;-89
2023/04/03 04:04:43;;;;;;;1.23;0.80;;;3.00;99.90;;;;;;4997380;28;20214;-89
2023/04/03 04:07:14;;;;;;;1.47;0.67;;;3.00;99.90;;;;;;4994559;28;20220;-90
2023/04/03 04:09:46;;;;;;;0.70;0.60;;;3.00;99.90;;;;;;5000667;28;20202;-90
2023/04/03 04:12:18;;;;;;;1.23;0.90;;;3.00;99.90;;;;;;4994303;28;20210;-90
2023/04/03 04:14:49;;;;;;;1.33;0.80;;;2.90;99.90;;;;;;4993862;28;20247;-91
2023/04/03 04:17:21;;;;;;;1.50;0.87;;;2.90;99.90;;;;;;4997298;28;20257;-90
2023/04/03 04:19:55;;;;;;;1.90;0.67;;;3.00;99.90;;;;;;4997870;28;20218;-91
2023/04/03 04:22:27;;;;;;;1.03;0.80;;;3.00;99.90;;;;;;4996496;28;20622;-89
2023/04/03 04:24:59;;;;;;;2.53;1.07;;;3.00;99.90;;;;;;4995909;28;20210;-90
2023/04/03 04:27:30;;;;;;;0.80;0.80;;;2.90;99.90;;;;;;4997230;28;20214;-90
2023/04/03 04:30:02;;;;;;;1.77;0.80;;;2.80;99.90;;;;;;4998248;28;20206;-91
2023/04/03 04:32:34;;;;;;;1.77;0.87;;;2.80;99.90;;;;;;4998282;28;20214;-90
2023/04/03 04:35:09;;;;;;;1.40;0.90;;;2.80;99.90;;;;;;4998996;28;20210;-90
2023/04/03 04:37:43;;;;;;;1.63;1.10;;;2.80;99.90;;;;;;4996877;28;20233;-91
2023/04/03 04:40:15;;;;;;;1.00;0.90;;;2.90;99.90;;;;;;5000494;28;20214;-91
2023/04/03 04:42:47;;;;;;;2.80;1.20;;;2.70;99.90;;;;;;4999972;28;20214;-89
2023/04/03 04:45:19;;;;;;;1.27;1.17;;;2.70;99.90;;;;;;4998937;28;20278;-90
2023/04/03 04:47:52;;;;;;;2.13;1.47;;;2.70;99.90;;;;;;4998807;28;20667;-90
2023/04/03 04:50:26;;;;;;;2.17;1.13;;;2.80;99.90;;;;;;4998175;28;20256;-90
2023/04/03 04:52:58;;;;;;;1.50;1.00;;;2.90;99.90;;;;;;4998710;28;20243;-89
2023/04/03 04:55:29;;;;;;;1.07;0.97;;;2.90;99.90;;;;;;4997259;28;20199;-92
2023/04/03 04:58:00;;;;;;;1.03;0.90;;;3.00;99.90;;;;;;4996023;28;20206;-89
2023/04/03 05:00:33;;;;;;;1.13;1.00;;;3.00;99.90;;;;;;4997676;28;20198;-88
2023/04/03 05:03:05;;;;;;;1.97;1.10;;;3.10;99.90;;;;;;4998384;28;20214;-90
2023/04/03 05:05:38;;;;;;;1.60;1.07;;;3.10;99.90;;;;;;4997120;28;20249;-89
2023/04/03 05:08:10;;;;;;;1.10;1.00;;;3.10;99.90;;;;;;4987369;28;20215;-89
2023/04/03 05:10:42;;;;;;;1.67;1.23;;;3.10;99.90;;;;;;4976973;28;20254;-89
2023/04/03 05:13:14;;;;;;;1.30;1.20;;;3.10;99.90;;;;;;4977834;28;20210;-89
2023/04/03 05:15:46;;;;;;;0.87;0.87;;;3.20;99.90;;;;;;4989164;28;20241;-90
2023/04/03 05:18:18;;;;;;;1.57;0.87;;;3.20;99.90;;;;;;4995804;28;20226;-90
2023/04/03 05:20:53;;;;;;;0.60;0.50;;;3.10;99.90;;;;;;4997011;28;20268;-89
2023/04/03 05:23:26;;;;;;;1.57;1.00;;;3.10;99.90;;;;;;4996817;28;20213;-90
2023/04/03 05:25:57;;;;;;;0.70;0.70;;;3.00;99.90;;;;;;4995679;28;20206;-89
2023/04/03 05:28:29;;;;;;;0.93;0.80;;;3.00;99.90;;;;;;4995324;28;20586;-90
2023/04/03 05:31:01;;;;;;;0.80;0.80;;;2.80;99.90;;;;;;4997041;28;20214;-89
2023/04/03 05:33:33;;;;;;;0.70;0.70;;;2.80;99.90;;;;;;5001910;28;20213;-89
2023/04/03 05:36:08;;;;;;;0.80;0.80;;;2.80;99.90;;;;;;4997121;28;20288;-89
2023/04/03 05:38:40;;;;;;;1.20;0.70;;;2.80;99.90;;;;;;4996856;28;20666;-90
2023/04/03 05:41:13;;;;;;;1.23;0.90;;;2.90;99.90;;;;;;5000942;28;20678;-89
2023/04/03 05:43:45;;;;;;;0.73;0.73;;;2.90;99.90;;;;;;4998785;28;20214;-90
2023/04/03 05:46:18;;;;;;;0.80;0.80;;;2.80;99.90;;;;;;4995735;28;20596;-91
2023/04/03 05:48:51;;;;;;;1.20;1.03;;;2.70;99.90;;;;;;4995841;28;20257;-89
2023/04/03 05:51:27;;;;;;;1.33;1.07;;;2.70;99.90;;;;;;5012664;28;20209;-90
2023/04/03 05:54:04;;;;;;;1.10;1.00;;;2.80;99.90;;;;;;5004231;28;20206;-90
2023/04/03 05:56:36;;;;;;;0.90;0.90;;;2.70;99.90;;;;;;4997253;28;20265;-90
2023/04/03 05:59:08;;;;;;;1.57;1.00;;;2.60;99.90;;;;;;4996078;28;20233;-90
2023/04/03 06:01:40;;;;;;;2.47;1.30;;;2.70;99.90;;;;;;4997637;28;20210;-91
2023/04/03 06:04:12;;;;;;;1.10;0.90;;;2.80;99.90;;;;;;5000113;28;20217;-88
2023/04/03 06:06:51;;;;;;;1.53;1.10;;;2.80;99.90;;;;;;4997395;28;20206;-90
2023/04/03 06:09:24;;;;;;;1.03;0.93;;;2.70;99.90;;;;;;4992742;28;20214;-90
2023/04/03 06:11:55;;;;;;;1.23;1.13;;;2.70;99.90;;;;;;4976099;28;20207;-89
2023/04/03 06:14:27;;;;;;;1.13;0.90;;;2.70;99.90;;;;;;4976742;28;20639;-89
2023/04/03 06:16:59;;;;;;;1.20;1.10;;;2.80;99.90;;;;;;4977453;28;20621;-89
2023/04/03 06:19:31;;;;;;;2.47;1.47;;;2.80;99.90;;;;;;4990593;28;20230;-89
2023/04/03 06:22:04;;;;;;;1.93;1.40;;;2.80;99.90;;;;;;5014225;28;20189;-89
2023/04/03 06:24:37;;;;;;;1.30;1.20;;;2.90;99.90;;;;;;5000797;28;20273;-90
2023/04/03 06:27:09;;;;;;;1.53;1.07;;;2.90;99.90;;;;;;4980550;28;20214;-90
2023/04/03 06:29:41;;;;;;;2.47;1.83;;;3.00;99.90;;;;;;4985528;28;20199;-89
2023/04/03 06:32:13;;;;;;;2.07;1.53;;;3.00;99.90;;;;;;4987228;28;20724;-90
2023/04/03 06:34:45;;;;;;;3.03;2.50;;;3.00;99.90;;;;;;4646002;28;9999822;-89
2023/04/03 06:37:21;;;;;;;4.00;2.37;;;3.00;99.90;;;;;;4989951;28;20207;-90
2023/04/03 06:39:52;;;;;;;3.07;2.40;;;2.80;99.90;;;;;;4997538;28;20224;-90
2023/04/03 06:42:24;;;;;;;2.40;2.20;;;2.90;99.90;;;;;;4987514;28;20214;-92
2023/04/03 06:44:55;;;;;;;2.40;1.47;;;3.10;99.90;;;;;;4988814;28;20276;-90
2023/04/03 06:47:27;;;;;;;2.30;1.90;;;2.90;99.90;;;;;;4991362;28;20195;-88
2023/04/03 06:49:58;;;;;;;2.27;2.07;;;2.90;99.90;;;;;;4996455;28;20206;-88
2023/04/03 06:52:32;;;;;;;2.00;1.80;;;3.00;99.90;;;;;;4986800;28;20309;-91
2023/04/03 06:55:04;;;;;;;2.63;2.13;;;3.00;99.90;;;;;;4988422;28;20668;-89
2023/04/03 06:57:36;;;;;;;1.83;1.67;;;3.00;99.90;;;;;;4980875;28;20711;-90
2023/04/03 07:00:09;;;;;;;1.50;1.37;;;3.00;99.90;;;;;;4992988;28;20305;-89
2023/04/03 07:02:41;;;;;;;2.00;1.30;;;3.20;99.90;;;;;;4994059;28;20206;-90
2023/04/03 07:05:13;;;;;;;1.93;1.70;;;3.10;99.90;;;;;;4981665;28;20214;-91
2023/04/03 07:07:46;;;;;;;1.70;1.60;;;3.10;99.90;;;;;;4988741;28;20210;-89
2023/04/03 07:10:18;;;;;;;2.07;1.83;;;3.10;99.90;;;;;;4980943;28;20266;-89
2023/04/03 07:12:51;;;;;;;2.23;2.03;;;3.10;99.90;;;;;;4992365;28;20202;-89
2023/04/03 07:15:22;;;;;;;2.07;1.90;;;3.20;99.90;;;;;;4995606;28;20214;-89
2023/04/03 07:17:53;;;;;;;1.77;1.67;;;3.20;99.90;;;;;;4996601;28;20210;-90
2023/04/03 07:20:25;;;;;;;2.27;2.10;;;3.20;99.90;;;;;;4999479;28;20321;-89
2023/04/03 07:22:59;;;;;;;2.13;1.83;;;3.20;99.90;;;;;;4997530;28;20218;-89
2023/04/03 07:25:33;;;;;;;1.93;1.70;;;3.10;99.90;;;;;;4998479;28;20293;-89
2023/04/03 07:28:08;;;;;;;1.97;1.50;;;3.10;99.90;;;;;;4994785;28;20342;-89
2023/04/03 07:30:45;;;;;;;1.40;1.30;;;3.20;99.90;;;;;;4991565;28;20199;-88
2023/04/03 07:33:18;;;;;;;1.33;1.23;;;3.10;99.90;;;;;;4981542;28;20314;-89
2023/04/03 07:35:50;;;;;;;1.33;1.10;;;3.10;99.90;;;;;;4982261;28;20201;-89
2023/04/03 07:38:24;;;;;;;1.30;1.20;;;3.20;99.90;;;;;;4994258;28;20207;-89
2023/04/03 07:40:55;;;;;;;1.30;1.20;;;3.20;99.90;;;;;;4988014;28;20945;-89
2023/04/03 07:43:27;;;;;;;1.70;1.60;;;3.20;99.90;;;;;;4986087;28;20233;-89
2023/04/03 07:45:59;;;;;;;1.33;1.23;;;3.20;99.90;;;;;;4993014;28;20289;-89
2023/04/03 07:48:30;;;;;;;1.43;1.33;;;3.20;99.90;;;;;;4991206;28;20266;-89
2023/04/03 07:51:03;;;;;;;2.23;1.37;;;3.10;99.90;;;;;;4999813;28;20695;-88
2023/04/03 07:53:36;;;;;;;1.80;1.40;;;3.20;99.90;;;;;;4999049;28;20217;-89
2023/04/03 07:56:09;;;;;;;1.50;1.40;;;3.20;99.90;;;;;;4987220;28;20207;-89
2023/04/03 07:58:40;;;;;;;1.50;1.40;;;3.20;99.90;;;;;;4997960;28;20257;-88
2023/04/03 08:01:12;;;;;;;1.53;1.37;;;3.20;99.90;;;;;;4991894;28;20297;-89
2023/04/03 08:03:44;;;;;;;1.67;1.50;;;3.10;99.90;;;;;;4999059;28;20218;-89
2023/04/03 08:06:16;;;;;;;2.03;1.93;;;3.20;99.90;;;;;;4990685;28;20215;-89
2023/04/03 08:08:58;;;;;;;1.70;1.60;;;3.20;99.90;;;;;;4981861;28;20210;-89
2023/04/03 08:11:30;;;;;;;2.07;1.80;;;3.30;99.90;;;;;;4979209;28;20218;-88
2023/04/03 08:14:03;;;;;;;2.33;2.13;;;3.30;99.90;;;;;;4979563;28;20680;-87
2023/04/03 08:16:35;;;;;;;2.20;2.00;;;3.30;99.90;;;;;;4980798;28;20219;-89
2023/04/03 08:19:07;;;;;;;2.77;2.57;;;3.20;99.90;;;;;;4979500;28;20233;-89
2023/04/03 08:21:48;;;;;;;2.73;2.50;;;3.20;99.90;;;;;;5017212;28;20240;-88
2023/04/03 08:24:21;;;;;;;2.30;2.10;;;3.30;99.90;;;;;;4998655;28;20210;-89
2023/04/03 08:26:53;;;;;;;3.00;2.30;;;3.30;99.90;;;;;;4984372;28;20207;-89
2023/04/03 08:29:25;;;;;;;2.60;2.40;;;3.20;99.90;;;;;;4982472;28;20207;-88
2023/04/03 08:31:56;;;;;;;4.03;2.03;;;3.20;99.90;;;;;;4992730;28;20206;-88
2023/04/03 08:34:29;;;;;;;2.53;2.33;;;3.10;99.90;;;;;;4998946;28;20212;-89
2023/04/03 08:37:00;;;;;;;1.70;1.60;;;3.20;99.90;;;;;;4998415;28;20294;-89
2023/04/03 08:39:34;;;;;;;2.13;1.80;;;3.20;99.90;;;;;;5009005;28;20213;-89
2023/04/03 08:42:15;;;;;;;2.07;1.87;;;3.10;99.90;;;;;;5017625;28;20218;-88
2023/04/03 08:44:52;;;;;;;1.80;1.70;;;3.10;99.90;;;;;;5005772;28;20206;-89
2023/04/03 08:47:31;;;;;;;2.20;2.00;;;3.20;99.90;;;;;;5012250;28;20206;-90
2023/04/03 08:50:06;;;;;;;2.20;2.00;;;3.20;99.90;;;;;;5009092;28;20210;-88
2023/04/03 08:52:43;;;;;;;2.13;1.93;;;3.00;99.90;;;;;;4995314;28;20210;-89
2023/04/03 08:55:24;;;;;;;1.80;1.70;;;3.10;99.90;;;;;;4981034;28;20222;-89
2023/04/03 08:58:03;;;;;;;1.60;1.50;;;3.10;99.90;;;;;;4985334;28;20217;-89
2023/04/03 09:00:43;;;;;;;1.50;1.40;;;3.00;99.90;;;;;;4993464;28;20574;-89
2023/04/03 09:03:17;;;;;;;1.40;1.30;;;2.80;99.90;;;;;;4979252;28;20214;-89
2023/04/03 09:05:54;;;;;;;1.13;1.03;;;2.90;99.90;;;;;;4979191;28;20213;-89
2023/04/03 09:08:29;;;;;;;1.20;1.10;;;2.90;99.90;;;;;;4996542;28;20218;-90
2023/04/03 09:11:12;;;;;;;0.97;0.97;;;2.90;99.90;;;;;;4996777;28;20213;-89
2023/04/03 09:13:52;;;;;;;1.17;1.10;;;2.80;99.90;;;;;;4996711;28;20210;-89
2023/04/03 09:16:31;;;;;;;1.10;1.00;;;2.80;99.90;;;;;;4997111;28;20206;-89
2023/04/03 09:19:14;;;;;;;1.07;0.90;;;2.80;99.90;;;;;;4996183;28;20210;-89
2023/04/03 09:21:45;;;;;;;1.37;0.70;;;2.70;99.90;;;;;;4996483;28;20284;-88
2023/04/03 09:24:18;;;;;;;0.80;0.80;;;2.80;99.90;;;;;;4996044;28;20572;-89
2023/04/03 09:26:58;;;;;;;1.10;0.70;;;2.90;99.90;;;;;;5001719;28;20204;-89
2023/04/03 09:29:32;;;;;;;0.70;0.60;;;2.80;99.90;;;;;;5015237;28;20209;-89
2023/04/03 09:32:05;;;;;;;0.80;0.50;;;2.90;99.90;;;;;;5015709;28;20605;-89
2023/04/03 09:34:38;;;;;;;0.83;0.60;;;2.90;99.90;;;;;;4998543;28;20218;-89
2023/04/03 09:37:10;;;;;;;0.70;0.70;;;2.90;99.90;;;;;;4995654;28;20251;-87
2023/04/03 09:39:55;;;;;;;0.77;0.77;;;2.90;99.90;;;;;;4996039;28;20545;-89
2023/04/03 09:42:32;;;;;;;0.73;0.70;;;2.90;99.90;;;;;;4995958;28;20711;-88
2023/04/03 09:45:06;;;;;;;0.70;0.70;;;2.90;99.90;;;;;;4996170;28;20203;-88
2023/04/03 09:47:38;;;;;;;2.00;0.70;;;3.00;99.90;;;;;;4994902;28;20234;-88
2023/04/03 09:50:24;;;;;;;0.60;0.60;;;3.00;99.90;;;;;;4996219;28;20686;-90
2023/04/03 09:52:55;;;;;;;0.80;0.80;;;3.00;99.90;;;;;;4975969;28;20636;-88
2023/04/03 09:55:29;;;;;;;0.80;0.80;;;3.00;99.90;;;;;;4975802;28;20218;-88
2023/04/03 09:58:04;;;;;;;0.93;0.70;;;3.10;99.90;;;;;;4975743;28;20211;-88
2023/04/03 10:00:38;;;;;;;1.00;0.80;;;3.00;99.90;;;;;;4981860;28;20209;-90
2023/04/03 10:03:27;;;;;;;0.83;0.80;;;2.90;99.90;;;;;;4996020;28;20260;-89
2023/04/03 10:05:59;;;;;;;0.80;0.60;;;2.90;99.90;;;;;;4996036;28;20609;-89
2023/04/03 10:08:33;;;;;;;1.20;0.70;;;2.90;99.90;;;;;;4994614;28;20675;-89
2023/04/03 10:11:19;;;;;;;0.90;0.77;;;2.90;99.90;;;;;;4995271;28;20264;-89
2023/04/03 10:13:59;;;;;;;0.60;0.60;;;2.80;99.90;;;;;;4994917;28;20210;-88
2023/04/03 10:16:40;;;;;;;1.07;0.60;;;2.80;99.90;;;;;;4995357;28;20218;-88
2023/04/03 10:19:32;;;;;;;0.80;0.80;;;2.90;99.90;;;;;;4974465;28;20219;-89
2023/04/03 10:22:07;;;;;;;1.70;0.87;;;2.90;99.90;;;;;;4975393;28;20246;-89
2023/04/03 10:24:54;;;;;;;0.70;0.70;;;3.00;99.90;;;;;;4975952;28;20214;-89
2023/04/03 10:27:35;;;;;;;0.70;0.70;;;2.90;99.90;;;;;;4990102;28;20260;-88
2023/04/03 10:30:21;;;;;;;0.60;0.60;;;2.90;99.90;;;;;;4995359;28;20213;-89
2023/04/03 10:33:07;;;;;;;0.90;0.80;;;2.90;99.90;;;;;;4995707;28;20544;-88
2023/04/03 10:35:52;;;;;;;0.57;0.57;;;3.00;99.90;;;;;;4996840;28;20214;-89
2023/04/03 10:38:32;;;;;;;1.77;0.67;;;2.90;99.90;;;;;;4993496;28;20199;-88
2023/04/03 10:41:11;;;;;;;0.60;0.53;;;2.90;99.90;;;;;;5012065;28;20198;-89
2023/04/03 10:43:52;;;;;;;0.60;0.50;;;2.90;99.90;;;;;;5012497;28;20277;-89
2023/04/03 10:46:33;;;;;;;0.60;0.50;;;2.90;99.90;;;;;;4995709;28;20302;-90
2023/04/03 10:49:17;;;;;;;0.50;0.50;;;2.90;99.90;;;;;;4994849;28;20217;-88
2023/04/03 10:51:53;;;;;;;0.50;0.50;;;2.90;99.90;;;;;;4996156;28;20218;-90
2023/04/03 10:54:28;;;;;;;0.90;0.50;;;2.90;99.90;;;;;;4995216;28;20226;-89
2023/04/03 10:57:03;;;;;;;0.63;0.60;;;2.90;99.90;;;;;;4995603;28;20666;-89
2023/04/03 10:59:45;;;;;;;1.70;0.70;;;2.90;99.90;;;;;;4975373;28;20804;-88
2023/04/03 11:02:26;;;;;;;0.70;0.70;;;2.90;99.90;;;;;;4986706;28;20229;-90
2023/04/03 11:05:04;;;;;;;1.23;0.60;;;2.90;99.90;;;;;;4995255;28;20414;-89
2023/04/03 11:07:40;;;;;;;0.70;0.50;;;3.00;99.90;;;;;;4994452;28;20304;-89
2023/04/03 11:10:17;;;;;;;0.73;0.70;;;2.90;99.90;;;;;;4998416;28;20206;-89
2023/04/03 11:12:52;;;;;;;0.40;0.40;;;3.00;99.90;;;;;;4995150;28;20246;-89
2023/04/03 11:15:26;;;;;;;0.63;0.40;;;3.00;99.90;;;;;;4995094;28;20581;-89
2023/04/03 11:18:06;;;;;;;0.53;0.40;;;2.90;99.90;;;;;;4994761;28;20289;-88
2023/04/03 11:20:43;;;;;;;0.50;0.40;;;2.90;99.90;;;;;;4979002;28;20215;-88
2023/04/03 11:23:24;;;;;;;0.77;0.30;;;2.90;99.90;;;;;;4977903;28;20253;-88
2023/04/03 11:26:09;;;;;;;0.73;0.50;;;2.90;99.90;;;;;;4979324;28;20656;-88
2023/04/03 11:28:41;;;;;;;0.60;0.60;;;2.90;99.90;;;;;;4988119;28;20202;-89
2023/04/03 11:31:27;;;;;;;0.30;0.30;;;2.90;99.90;;;;;;4998263;28;20225;-88
2023/04/03 11:34:16;;;;;;;0.73;0.43;;;2.90;99.90;;;;;;4998340;28;20812;-87
2023/04/03 11:36:51;;;;;;;0.40;0.40;;;2.90;99.90;;;;;;4993399;28;20717;-88
2023/04/03 11:39:27;;;;;;;0.63;0.30;;;2.90;99.90;;;;;;4997104;28;20210;-88
2023/04/03 11:42:15;;;;;;;0.40;0.40;;;2.90;99.90;;;;;;4998025;28;20917;-88
2023/04/03 11:44:46;;;;;;;0.30;0.30;;;2.90;99.90;;;;;;4998794;28;20264;-88
2023/04/03 11:47:47;;;;;;;0.40;0.40;;;2.90;99.90;;;;;;4998183;28;20209;-90
2023/04/03 11:50:45;;;;;;;0.70;0.67;;;2.90;99.90;;;;;;4998123;28;20320;-88
2023/04/03 11:53:35;;;;;;;0.57;0.50;;;3.10;99.90;;;;;;4994168;28;20216;-89
2023/04/03 11:56:32;;;;;;;0.70;0.60;;;3.00;99.90;;;;;;4981153;28;20223;-88
2023/04/03 11:59:26;;;;;;;1.97;0.50;;;3.00;99.90;;;;;;4977632;28;20235;-88
2023/04/03 12:01:58;;;;;;;1.40;0.63;;;3.00;99.90;;;;;;4994125;28;20296;-88
2023/04/03 12:04:31;;;;;;;0.83;0.70;;;3.00;99.90;;;;;;4997672;28;20540;-88
2023/04/03 12:07:15;;;;;;;1.37;0.70;;;3.10;99.90;;;;;;4996552;28;20274;-87
2023/04/03 12:10:18;;;;;;;1.03;0.80;;;3.10;99.90;;;;;;5000822;28;20205;-89
2023/04/03 12:13:04;;;;;;;0.97;0.70;;;3.10;99.90;;;;;;5006439;28;20636;-89
2023/04/03 12:15:54;;;;;;;1.63;0.80;;;3.10;99.90;;;;;;4997963;28;20547;-90
2023/04/03 12:19:00;;;;;;;0.80;0.80;;;3.10;99.90;;;;;;4996685;28;20207;-89
2023/04/03 12:22:11;;;;;;;1.10;1.00;;;3.10;99.90;;;;;;4996924;28;20218;-89
2023/04/03 12:24:44;;;;;;;1.50;1.03;;;3.20;99.90;;;;;;4998061;28;20202;-88
2023/04/03 12:27:40;;;;;;;1.20;0.80;;;3.20;99.90;;;;;;5013089;28;20202;-87
2023/04/03 12:30:26;;;;;;;1.10;1.03;;;3.20;99.90;;;;;;5015610;28;20618;-89
2023/04/03 12:33:21;;;;;;;1.57;1.20;;;3.20;99.90;;;;;;5026355;28;20201;-88
2023/04/03 12:36:05;;;;;;;3.07;1.30;;;3.20;99.90;;;;;;5017425;28;20219;-89
2023/04/03 12:39:12;;;;;;;1.30;1.20;;;3.20;99.90;;;;;;5016912;28;20229;-89
2023/04/03 12:41:55;;;;;;;1.20;1.10;;;3.20;99.90;;;;;;5004355;28;20210;-88
2023/04/03 12:44:40;;;;;;;1.47;1.37;;;3.20;99.90;;;;;;5004191;28;20247;-89
2023/04/03 12:47:32;;;;;;;1.60;1.50;;;3.20;99.90;;;;;;4996637;28;20213;-89
2023/04/03 12:50:05;;;;;;;1.50;1.40;;;3.30;99.90;;;;;;4997326;28;20586;-89
2023/04/03 12:52:42;;;;;;;1.60;1.50;;;3.30;99.90;;;;;;4996834;28;20218;-88
2023/04/03 12:55:21;;;;;;;2.53;1.30;;;3.20;99.90;;;;;;4997206;28;20210;-88
2023/04/03 12:57:54;;;;;;;1.63;1.47;;;3.20;99.90;;;;;;4995612;28;20214;-89
2023/04/03 13:00:33;;;;;;;1.90;1.30;;;3.20;99.90;;;;;;4996581;28;20265;-87
2023/04/03 13:03:06;;;;;;;1.60;1.40;;;3.30;99.90;;;;;;4997207;28;20221;-88
2023/04/03 13:05:39;;;;;;;1.87;1.30;;;3.30;99.90;;;;;;4989872;28;20207;-88
2023/04/03 13:08:16;;;;;;;1.67;1.57;;;3.20;99.90;;;;;;4976418;28;20215;-89
2023/04/03 13:10:55;;;;;;;1.47;1.30;;;3.30;99.90;;;;;;4977217;28;20266;-89
2023/04/03 13:13:29;;;;;;;1.63;1.53;;;3.30;99.90;;;;;;4977021;28;20203;-88
2023/04/03 13:16:01;;;;;;;2.13;1.67;;;3.30;99.90;;;;;;4977320;28;20214;-88
2023/04/03 13:18:34;;;;;;;1.77;1.67;;;3.40;99.90;;;;;;4976311;28;20640;-90
2023/04/03 13:21:09;;;;;;;2.23;2.03;;;3.40;99.90;;;;;;4976990;28;20207;-88
2023/04/03 13:23:45;;;;;;;2.30;2.10;;;3.40;99.90;;;;;;4986097;28;20238;-88
2023/04/03 13:26:19;;;;;;;1.97;1.83;;;3.40;99.90;;;;;;4996203;28;20206;-87
2023/04/03 13:28:53;;;;;;;3.83;1.87;;;3.40;99.90;;;;;;5001613;28;20220;-88
2023/04/03 13:31:30;;;;;;;1.70;1.57;;;3.40;99.90;;;;;;5013403;28;20221;-88
2023/04/03 13:34:05;;;;;;;1.60;1.50;;;3.40;99.90;;;;;;4976694;28;20253;-89
2023/04/03 13:36:39;;;;;;;2.30;1.90;;;3.30;99.90;;;;;;4986665;28;20229;-88
2023/04/03 13:39:24;;;;;;;2.00;1.90;;;3.40;99.90;;;;;;4985494;28;20238;-87
2023/04/03 13:41:57;;;;;;;2.57;1.80;;;3.40;99.90;;;;;;4977011;28;20215;-88